sensor_id;sensor_type;location;lat;lon;timestamp;pressure;altitude;pressure_sealevel;temperature;humidity
6435;BME280;3250;42.694;23.278;2022-09-09T00:04:59;95067.34;;;17.92;81.98
6435;BME280;3250;42.694;23.278;2022-09-09T00:07:49;95070.88;;;17.97;82.07
6435;BME280;3250;42.694;23.278;2022-09-09T00:10:24;95061.03;;;17.98;81.71
6435;BME280;3250;42.694;23.278;2022-09-09T00:13:13;95067.66;;;17.95;82.02
6435;BME280;3250;42.694;23.278;2022-09-09T00:19:02;95061.97;;;17.87;82.86
6435;BME280;3250;42.694;23.278;2022-09-09T00:21:36;95050.16;;;17.78;82.46
6435;BME280;3250;42.694;23.278;2022-09-09T00:24:11;95050.53;;;17.64;83.00
6435;BME280;3250;42.694;23.278;2022-09-09T00:26:51;95046.03;;;17.65;83.40
6435;BME280;3250;42.694;23.278;2022-09-09T00:29:54;95044.72;;;17.67;83.55
6435;BME280;3250;42.694;23.278;2022-09-09T00:32:22;95037.28;;;17.69;83.15
6435;BME280;3250;42.694;23.278;2022-09-09T00:37:15;95028.19;;;17.65;83.27
6435;BME280;3250;42.694;23.278;2022-09-09T00:39:46;95016.47;;;17.66;83.39
6435;BME280;3250;42.694;23.278;2022-09-09T00:42:41;95030.34;;;17.68;83.50
6435;BME280;3250;42.694;23.278;2022-09-09T00:47:55;95034.88;;;17.68;83.33
6435;BME280;3250;42.694;23.278;2022-09-09T00:50:25;95030.34;;;17.68;83.26
6435;BME280;3250;42.694;23.278;2022-09-09T00:58:21;95015.69;;;17.66;83.10
6435;BME280;3250;42.694;23.278;2022-09-09T01:00:52;95033.06;;;17.73;83.39
6435;BME280;3250;42.694;23.278;2022-09-09T01:03:37;95035.13;;;17.66;83.61
6435;BME280;3250;42.694;23.278;2022-09-09T01:06:31;95031.91;;;17.64;83.64
6435;BME280;3250;42.694;23.278;2022-09-09T01:09:30;95028.47;;;17.64;83.67
6435;BME280;3250;42.694;23.278;2022-09-09T01:12:16;95028.75;;;17.67;83.59
6435;BME280;3250;42.694;23.278;2022-09-09T01:14:49;95039.41;;;17.67;83.68
6435;BME280;3250;42.694;23.278;2022-09-09T01:27:43;95025.41;;;17.55;84.05
6435;BME280;3250;42.694;23.278;2022-09-09T01:30:13;95021.00;;;17.44;84.39
6435;BME280;3250;42.694;23.278;2022-09-09T01:32:42;95038.88;;;17.49;84.38
6435;BME280;3250;42.694;23.278;2022-09-09T01:35:12;95041.53;;;17.49;83.85
6435;BME280;3250;42.694;23.278;2022-09-09T01:37:40;95034.31;;;17.44;84.00
6435;BME280;3250;42.694;23.278;2022-09-09T01:40:06;95033.19;;;17.40;84.09
6435;BME280;3250;42.694;23.278;2022-09-09T01:42:31;95042.31;;;17.44;83.97
6435;BME280;3250;42.694;23.278;2022-09-09T01:44:57;95039.09;;;17.42;84.28
6435;BME280;3250;42.694;23.278;2022-09-09T01:47:22;95043.56;;;17.37;84.12
6435;BME280;3250;42.694;23.278;2022-09-09T01:49:48;95048.94;;;17.20;84.36
6435;BME280;3250;42.694;23.278;2022-09-09T01:52:13;95050.03;;;17.24;84.69
6435;BME280;3250;42.694;23.278;2022-09-09T01:54:39;95047.88;;;17.21;84.78
6435;BME280;3250;42.694;23.278;2022-09-09T01:57:18;95051.66;;;17.25;84.72
6435;BME280;3250;42.694;23.278;2022-09-09T01:59:58;95050.94;;;17.29;84.62
6435;BME280;3250;42.694;23.278;2022-09-09T02:05:22;95045.59;;;17.29;84.28
6435;BME280;3250;42.694;23.278;2022-09-09T02:08:00;95042.63;;;17.26;84.34
6435;BME280;3250;42.694;23.278;2022-09-09T02:13:19;95022.56;;;17.18;84.89
6435;BME280;3250;42.694;23.278;2022-09-09T02:15:52;95025.66;;;17.10;85.25
6435;BME280;3250;42.694;23.278;2022-09-09T02:19:08;95028.50;;;17.04;85.85
6435;BME280;3250;42.694;23.278;2022-09-09T02:21:09;95029.63;;;17.08;85.98
6435;BME280;3250;42.694;23.278;2022-09-09T02:23:37;95033.09;;;17.08;86.00
6435;BME280;3250;42.694;23.278;2022-09-09T02:26:05;95035.56;;;17.15;85.39
6435;BME280;3250;42.694;23.278;2022-09-09T02:28:33;95033.94;;;17.14;85.55
6435;BME280;3250;42.694;23.278;2022-09-09T02:31:00;95029.63;;;17.08;85.02
6435;BME280;3250;42.694;23.278;2022-09-09T02:33:30;95029.63;;;17.08;85.43
6435;BME280;3250;42.694;23.278;2022-09-09T02:35:59;95042.78;;;16.97;85.96
6435;BME280;3250;42.694;23.278;2022-09-09T02:38:29;95039.88;;;16.99;86.02
6435;BME280;3250;42.694;23.278;2022-09-09T02:40:57;95059.34;;;17.05;85.98
6435;BME280;3250;42.694;23.278;2022-09-09T02:43:24;95044.63;;;16.97;85.63
6435;BME280;3250;42.694;23.278;2022-09-09T02:48:58;95043.72;;;16.86;86.26
6435;BME280;3250;42.694;23.278;2022-09-09T02:54:17;95037.41;;;16.92;85.44
6435;BME280;3250;42.694;23.278;2022-09-09T02:56:50;95023.47;;;16.85;85.44
6435;BME280;3250;42.694;23.278;2022-09-09T02:59:16;95028.41;;;16.77;85.83
6435;BME280;3250;42.694;23.278;2022-09-09T03:01:42;95057.06;;;16.91;85.57
6435;BME280;3250;42.694;23.278;2022-09-09T03:04:09;95038.47;;;16.75;85.94
6435;BME280;3250;42.694;23.278;2022-09-09T03:06:34;95047.91;;;16.82;86.25
6435;BME280;3250;42.694;23.278;2022-09-09T03:09:00;95047.91;;;16.82;86.24
6435;BME280;3250;42.694;23.278;2022-09-09T03:11:28;95048.47;;;16.84;86.05
6435;BME280;3250;42.694;23.278;2022-09-09T03:13:54;95045.22;;;16.82;85.87
6435;BME280;3250;42.694;23.278;2022-09-09T03:16:24;95049.28;;;16.85;85.58
6435;BME280;3250;42.694;23.278;2022-09-09T03:18:49;95037.81;;;16.84;85.50
6435;BME280;3250;42.694;23.278;2022-09-09T03:21:15;95047.84;;;16.77;85.36
6435;BME280;3250;42.694;23.278;2022-09-09T03:23:41;95046.47;;;16.75;85.82
6435;BME280;3250;42.694;23.278;2022-09-09T03:26:07;95047.56;;;16.79;86.27
6435;BME280;3250;42.694;23.278;2022-09-09T03:28:32;95049.19;;;16.80;86.05
6435;BME280;3250;42.694;23.278;2022-09-09T03:31:05;95046.03;;;16.83;85.28
6435;BME280;3250;42.694;23.278;2022-09-09T03:33:31;95048.59;;;16.78;85.89
6435;BME280;3250;42.694;23.278;2022-09-09T03:35:57;95048.06;;;16.76;85.94
6435;BME280;3250;42.694;23.278;2022-09-09T03:38:23;95044.47;;;16.65;86.21
6435;BME280;3250;42.694;23.278;2022-09-09T03:40:53;95027.22;;;16.51;86.53
6435;BME280;3250;42.694;23.278;2022-09-09T03:43:25;95043.88;;;16.63;86.46
6435;BME280;3250;42.694;23.278;2022-09-09T03:45:51;95039.94;;;16.66;86.34
6435;BME280;3250;42.694;23.278;2022-09-09T03:48:17;95020.34;;;16.55;86.41
6435;BME280;3250;42.694;23.278;2022-09-09T03:50:46;95037.53;;;16.64;86.52
6435;BME280;3250;42.694;23.278;2022-09-09T03:53:12;95047.75;;;16.72;86.07
6435;BME280;3250;42.694;23.278;2022-09-09T03:55:37;95050.63;;;16.71;85.88
6435;BME280;3250;42.694;23.278;2022-09-09T03:58:03;95057.00;;;16.70;85.83
6435;BME280;3250;42.694;23.278;2022-09-09T04:00:29;95057.56;;;16.72;85.97
6435;BME280;3250;42.694;23.278;2022-09-09T04:02:55;95052.09;;;16.62;86.28
6435;BME280;3250;42.694;23.278;2022-09-09T04:05:22;95024.16;;;16.42;86.56
6435;BME280;3250;42.694;23.278;2022-09-09T04:07:47;95051.44;;;16.54;86.91
6435;BME280;3250;42.694;23.278;2022-09-09T04:10:12;95059.50;;;16.59;86.72
6435;BME280;3250;42.694;23.278;2022-09-09T04:12:38;95062.81;;;16.67;86.51
6435;BME280;3250;42.694;23.278;2022-09-09T04:15:04;95058.84;;;16.69;86.32
6435;BME280;3250;42.694;23.278;2022-09-09T04:17:30;95061.03;;;16.72;86.31
6435;BME280;3250;42.694;23.278;2022-09-09T04:19:55;95052.81;;;16.74;86.44
6435;BME280;3250;42.694;23.278;2022-09-09T04:22:22;95042.50;;;16.77;86.08
6435;BME280;3250;42.694;23.278;2022-09-09T04:24:47;95039.34;;;16.80;85.65
6435;BME280;3250;42.694;23.278;2022-09-09T04:27:13;95041.06;;;16.86;85.74
6435;BME280;3250;42.694;23.278;2022-09-09T04:29:38;95059.47;;;16.93;85.98
6435;BME280;3250;42.694;23.278;2022-09-09T04:32:03;95055.50;;;16.95;85.90
6435;BME280;3250;42.694;23.278;2022-09-09T04:34:29;95058.63;;;17.09;85.67
6435;BME280;3250;42.694;23.278;2022-09-09T04:36:56;95043.97;;;17.07;85.10
6435;BME280;3250;42.694;23.278;2022-09-09T04:39:22;95066.00;;;17.24;84.78
6435;BME280;3250;42.694;23.278;2022-09-09T04:41:47;95057.53;;;17.27;84.63
6435;BME280;3250;42.694;23.278;2022-09-09T04:44:13;95064.03;;;17.36;84.26
6435;BME280;3250;42.694;23.278;2022-09-09T04:46:39;95050.16;;;17.34;84.07
6435;BME280;3250;42.694;23.278;2022-09-09T04:49:06;95052.41;;;17.42;84.29
6435;BME280;3250;42.694;23.278;2022-09-09T04:51:31;95057.28;;;17.50;84.36
6435;BME280;3250;42.694;23.278;2022-09-09T04:53:57;95049.41;;;17.60;84.08
6435;BME280;3250;42.694;23.278;2022-09-09T04:56:23;95045.44;;;17.85;84.00
6435;BME280;3250;42.694;23.278;2022-09-09T04:58:48;95051.78;;;18.37;83.19
6435;BME280;3250;42.694;23.278;2022-09-09T05:01:19;95059.09;;;19.31;79.75
6435;BME280;3250;42.694;23.278;2022-09-09T05:03:46;95059.69;;;20.61;74.75
6435;BME280;3250;42.694;23.278;2022-09-09T05:06:15;95047.28;;;21.96;68.96
6435;BME280;3250;42.694;23.278;2022-09-09T05:08:42;95045.41;;;23.27;64.72
6435;BME280;3250;42.694;23.278;2022-09-09T05:11:29;95048.94;;;24.50;60.40
6435;BME280;3250;42.694;23.278;2022-09-09T05:13:55;95057.50;;;25.63;56.57
6435;BME280;3250;42.694;23.278;2022-09-09T05:16:22;95064.19;;;26.65;54.08
6435;BME280;3250;42.694;23.278;2022-09-09T05:18:48;95054.91;;;27.55;51.48
6435;BME280;3250;42.694;23.278;2022-09-09T05:21:17;95049.50;;;28.38;48.39
6435;BME280;3250;42.694;23.278;2022-09-09T05:23:44;95023.34;;;28.94;46.80
6435;BME280;3250;42.694;23.278;2022-09-09T05:26:14;95044.06;;;29.62;45.61
6435;BME280;3250;42.694;23.278;2022-09-09T05:28:40;95028.56;;;30.00;44.40
6435;BME280;3250;42.694;23.278;2022-09-09T05:31:07;95047.59;;;30.63;42.98
6435;BME280;3250;42.694;23.278;2022-09-09T05:33:34;95034.88;;;31.08;41.64
6435;BME280;3250;42.694;23.278;2022-09-09T05:36:05;95054.75;;;31.91;40.92
6435;BME280;3250;42.694;23.278;2022-09-09T05:38:31;95053.56;;;32.40;39.56
6435;BME280;3250;42.694;23.278;2022-09-09T05:40:58;95029.50;;;32.70;38.56
6435;BME280;3250;42.694;23.278;2022-09-09T05:43:24;95069.09;;;33.20;38.26
6435;BME280;3250;42.694;23.278;2022-09-09T05:46:04;95055.94;;;33.53;37.33
6435;BME280;3250;42.694;23.278;2022-09-09T05:48:31;95046.53;;;33.82;36.90
6435;BME280;3250;42.694;23.278;2022-09-09T05:50:58;95066.13;;;34.19;36.10
6435;BME280;3250;42.694;23.278;2022-09-09T05:53:25;95061.84;;;34.53;35.27
6435;BME280;3250;42.694;23.278;2022-09-09T05:55:50;95059.66;;;34.78;34.78
6435;BME280;3250;42.694;23.278;2022-09-09T05:58:16;95062.03;;;34.99;33.57
6435;BME280;3250;42.694;23.278;2022-09-09T06:00:42;95063.66;;;35.23;33.33
6435;BME280;3250;42.694;23.278;2022-09-09T06:03:10;95071.75;;;35.15;32.77
6435;BME280;3250;42.694;23.278;2022-09-09T06:05:36;95077.16;;;35.31;32.80
6435;BME280;3250;42.694;23.278;2022-09-09T06:08:02;95078.03;;;35.35;32.79
6435;BME280;3250;42.694;23.278;2022-09-09T06:10:28;95076.19;;;35.43;32.59
6435;BME280;3250;42.694;23.278;2022-09-09T06:12:53;95069.09;;;35.61;32.62
6435;BME280;3250;42.694;23.278;2022-09-09T06:15:19;95064.75;;;35.60;32.34
6435;BME280;3250;42.694;23.278;2022-09-09T06:17:44;95067.22;;;35.88;31.80
6435;BME280;3250;42.694;23.278;2022-09-09T06:20:10;95069.91;;;35.84;31.62
6435;BME280;3250;42.694;23.278;2022-09-09T06:22:39;95069.47;;;35.82;31.49
6435;BME280;3250;42.694;23.278;2022-09-09T06:25:05;95070.44;;;35.71;31.85
6435;BME280;3250;42.694;23.278;2022-09-09T06:27:31;95068.47;;;35.71;31.32
6435;BME280;3250;42.694;23.278;2022-09-09T06:29:56;95078.94;;;35.43;31.36
6435;BME280;3250;42.694;23.278;2022-09-09T06:32:22;95074.53;;;34.61;32.14
6435;BME280;3250;42.694;23.278;2022-09-09T06:34:47;95064.66;;;34.22;32.72
6435;BME280;3250;42.694;23.278;2022-09-09T06:37:14;95054.38;;;33.84;33.67
6435;BME280;3250;42.694;23.278;2022-09-09T06:39:39;95054.81;;;33.54;34.22
6435;BME280;3250;42.694;23.278;2022-09-09T06:42:05;95060.50;;;33.49;35.74
6435;BME280;3250;42.694;23.278;2022-09-09T06:44:31;95048.53;;;32.94;35.57
6435;BME280;3250;42.694;23.278;2022-09-09T06:46:58;95046.34;;;32.60;35.46
6435;BME280;3250;42.694;23.278;2022-09-09T06:49:23;95055.97;;;32.05;36.62
6435;BME280;3250;42.694;23.278;2022-09-09T06:51:49;95039.66;;;31.24;38.54
6435;BME280;3250;42.694;23.278;2022-09-09T06:54:15;95055.56;;;31.22;39.08
6435;BME280;3250;42.694;23.278;2022-09-09T06:56:41;95058.94;;;31.19;40.00
6435;BME280;3250;42.694;23.278;2022-09-09T06:59:11;95055.84;;;31.08;38.68
6435;BME280;3250;42.694;23.278;2022-09-09T07:01:42;95072.97;;;30.88;39.39
6435;BME280;3250;42.694;23.278;2022-09-09T07:04:17;95067.63;;;30.58;40.16
6435;BME280;3250;42.694;23.278;2022-09-09T07:06:44;95077.06;;;30.31;40.85
6435;BME280;3250;42.694;23.278;2022-09-09T07:09:12;95068.84;;;29.90;41.40
6435;BME280;3250;42.694;23.278;2022-09-09T07:11:41;95060.34;;;29.62;42.08
6435;BME280;3250;42.694;23.278;2022-09-09T07:14:07;95052.03;;;29.58;42.76
6435;BME280;3250;42.694;23.278;2022-09-09T07:16:33;95057.41;;;29.29;42.58
6435;BME280;3250;42.694;23.278;2022-09-09T07:19:02;95061.78;;;29.04;43.21
6435;BME280;3250;42.694;23.278;2022-09-09T07:21:29;95060.50;;;28.76;43.27
6435;BME280;3250;42.694;23.278;2022-09-09T07:23:56;95050.97;;;28.61;44.57
6435;BME280;3250;42.694;23.278;2022-09-09T07:26:23;95053.38;;;28.54;43.82
6435;BME280;3250;42.694;23.278;2022-09-09T07:28:49;95051.59;;;28.58;45.86
6435;BME280;3250;42.694;23.278;2022-09-09T07:31:16;95049.06;;;28.79;45.19
6435;BME280;3250;42.694;23.278;2022-09-09T07:33:42;95047.25;;;29.00;45.45
6435;BME280;3250;42.694;23.278;2022-09-09T07:36:32;95043.66;;;28.79;43.35
6435;BME280;3250;42.694;23.278;2022-09-09T07:39:00;95015.41;;;28.71;44.13
6435;BME280;3250;42.694;23.278;2022-09-09T07:41:35;95051.88;;;29.00;44.39
6435;BME280;3250;42.694;23.278;2022-09-09T07:44:08;95057.28;;;29.17;43.81
6435;BME280;3250;42.694;23.278;2022-09-09T07:46:35;95056.03;;;29.14;42.61
6435;BME280;3250;42.694;23.278;2022-09-09T07:49:01;95043.25;;;29.06;44.11
6435;BME280;3250;42.694;23.278;2022-09-09T07:51:32;95054.53;;;29.25;42.20
6435;BME280;3250;42.694;23.278;2022-09-09T07:54:00;95056.44;;;29.25;43.37
6435;BME280;3250;42.694;23.278;2022-09-09T07:56:29;95053.56;;;29.39;42.17
6435;BME280;3250;42.694;23.278;2022-09-09T07:58:56;95065.22;;;29.31;42.11
6435;BME280;3250;42.694;23.278;2022-09-09T08:01:36;95047.41;;;29.12;42.83
6435;BME280;3250;42.694;23.278;2022-09-09T08:04:06;95044.91;;;28.81;42.62
6435;BME280;3250;42.694;23.278;2022-09-09T08:06:37;95025.06;;;27.86;43.88
6435;BME280;3250;42.694;23.278;2022-09-09T08:09:04;95050.34;;;27.73;44.95
6435;BME280;3250;42.694;23.278;2022-09-09T08:11:30;95020.53;;;27.56;45.39
6435;BME280;3250;42.694;23.278;2022-09-09T08:13:55;95040.38;;;27.91;46.75
6435;BME280;3250;42.694;23.278;2022-09-09T08:16:26;95044.22;;;28.15;46.18
6435;BME280;3250;42.694;23.278;2022-09-09T08:18:53;95052.06;;;28.34;45.04
6435;BME280;3250;42.694;23.278;2022-09-09T08:21:24;95045.84;;;28.68;46.35
6435;BME280;3250;42.694;23.278;2022-09-09T08:23:52;95044.09;;;28.81;43.69
6435;BME280;3250;42.694;23.278;2022-09-09T08:26:30;95050.19;;;28.78;45.05
6435;BME280;3250;42.694;23.278;2022-09-09T08:28:57;95041.84;;;28.74;43.71
6435;BME280;3250;42.694;23.278;2022-09-09T08:31:31;95042.34;;;28.68;44.55
6435;BME280;3250;42.694;23.278;2022-09-09T08:33:58;95037.56;;;28.56;43.89
6435;BME280;3250;42.694;23.278;2022-09-09T08:36:36;95027.38;;;28.27;44.73
6435;BME280;3250;42.694;23.278;2022-09-09T08:39:03;95045.50;;;28.09;44.73
6435;BME280;3250;42.694;23.278;2022-09-09T08:52:29;95030.25;;;27.57;46.70
6435;BME280;3250;42.694;23.278;2022-09-09T08:55:35;95026.44;;;27.58;45.05
6435;BME280;3250;42.694;23.278;2022-09-09T08:58:17;95030.09;;;27.62;45.44
6435;BME280;3250;42.694;23.278;2022-09-09T09:08:43;95023.97;;;27.48;47.71
6435;BME280;3250;42.694;23.278;2022-09-09T09:11:12;95033.94;;;27.78;48.80
6435;BME280;3250;42.694;23.278;2022-09-09T09:16:53;95021.38;;;27.73;46.03
6435;BME280;3250;42.694;23.278;2022-09-09T09:19:19;95022.88;;;27.49;47.27
6435;BME280;3250;42.694;23.278;2022-09-09T09:21:54;95019.91;;;27.59;47.37
6435;BME280;3250;42.694;23.278;2022-09-09T09:24:51;95013.56;;;27.63;47.23
6435;BME280;3250;42.694;23.278;2022-09-09T09:29:50;95010.16;;;27.49;48.11
6435;BME280;3250;42.694;23.278;2022-09-09T09:32:19;95022.38;;;27.47;47.01
6435;BME280;3250;42.694;23.278;2022-09-09T09:34:54;94993.81;;;27.23;47.85
6435;BME280;3250;42.694;23.278;2022-09-09T09:37:32;95004.78;;;27.27;47.70
6435;BME280;3250;42.694;23.278;2022-09-09T09:40:17;95005.19;;;27.51;48.06
6435;BME280;3250;42.694;23.278;2022-09-09T09:42:54;95002.94;;;27.45;47.97
6435;BME280;3250;42.694;23.278;2022-09-09T09:45:43;95002.72;;;27.24;47.39
6435;BME280;3250;42.694;23.278;2022-09-09T09:48:11;94998.03;;;27.07;47.79
6435;BME280;3250;42.694;23.278;2022-09-09T09:50:58;94976.53;;;26.71;48.28
6435;BME280;3250;42.694;23.278;2022-09-09T09:53:33;95002.84;;;26.88;48.79
6435;BME280;3250;42.694;23.278;2022-09-09T09:56:02;94987.63;;;26.92;49.04
6435;BME280;3250;42.694;23.278;2022-09-09T09:58:30;94981.59;;;26.95;48.70
6435;BME280;3250;42.694;23.278;2022-09-09T10:00:57;94979.84;;;26.99;48.92
6435;BME280;3250;42.694;23.278;2022-09-09T10:03:28;94950.31;;;26.72;50.03
6435;BME280;3250;42.694;23.278;2022-09-09T10:05:54;94991.16;;;27.01;50.82
6435;BME280;3250;42.694;23.278;2022-09-09T10:08:22;94994.38;;;27.03;52.04
6435;BME280;3250;42.694;23.278;2022-09-09T10:19:00;95004.81;;;26.96;50.71
6435;BME280;3250;42.694;23.278;2022-09-09T10:26:54;95005.31;;;26.76;50.91
6435;BME280;3250;42.694;23.278;2022-09-09T10:43:06;95013.63;;;26.35;53.01
6435;BME280;3250;42.694;23.278;2022-09-09T10:45:41;94998.94;;;26.27;53.20
6435;BME280;3250;42.694;23.278;2022-09-09T10:51:02;95017.13;;;26.35;54.19
6435;BME280;3250;42.694;23.278;2022-09-09T10:53:46;95021.22;;;26.33;54.44
6435;BME280;3250;42.694;23.278;2022-09-09T10:56:18;95016.97;;;26.40;54.91
6435;BME280;3250;42.694;23.278;2022-09-09T10:59:02;94989.97;;;26.40;53.57
6435;BME280;3250;42.694;23.278;2022-09-09T11:01:43;95008.03;;;26.53;53.94
6435;BME280;3250;42.694;23.278;2022-09-09T11:04:23;95000.53;;;26.50;54.37
6435;BME280;3250;42.694;23.278;2022-09-09T11:06:54;94967.13;;;26.24;53.59
6435;BME280;3250;42.694;23.278;2022-09-09T11:09:28;94987.72;;;26.34;54.62
6435;BME280;3250;42.694;23.278;2022-09-09T11:11:58;95005.75;;;26.47;55.09
6435;BME280;3250;42.694;23.278;2022-09-09T11:14:41;95001.78;;;26.44;54.45
6435;BME280;3250;42.694;23.278;2022-09-09T11:17:24;94992.69;;;26.40;55.01
6435;BME280;3250;42.694;23.278;2022-09-09T11:19:52;94989.38;;;26.43;55.94
6435;BME280;3250;42.694;23.278;2022-09-09T11:25:14;94994.75;;;26.65;56.30
6435;BME280;3250;42.694;23.278;2022-09-09T11:30:50;94978.22;;;26.89;56.03
6435;BME280;3250;42.694;23.278;2022-09-09T11:42:22;94941.41;;;27.02;55.09
6435;BME280;3250;42.694;23.278;2022-09-09T11:44:49;94927.78;;;26.85;54.55
6435;BME280;3250;42.694;23.278;2022-09-09T11:49:47;94911.97;;;27.00;55.62
6435;BME280;3250;42.694;23.278;2022-09-09T11:52:38;94882.72;;;26.94;55.95
6435;BME280;3250;42.694;23.278;2022-09-09T12:03:34;94921.25;;;27.56;55.51
6435;BME280;3250;42.694;23.278;2022-09-09T12:06:24;94904.84;;;27.70;54.97
6435;BME280;3250;42.694;23.278;2022-09-09T12:08:55;94898.00;;;27.81;53.68
6435;BME280;3250;42.694;23.278;2022-09-09T12:11:29;94902.63;;;27.89;55.07
6435;BME280;3250;42.694;23.278;2022-09-09T12:13:58;94883.84;;;27.93;54.67
6435;BME280;3250;42.694;23.278;2022-09-09T12:16:37;94858.22;;;27.82;53.95
6435;BME280;3250;42.694;23.278;2022-09-09T12:19:26;94815.53;;;27.44;53.20
6435;BME280;3250;42.694;23.278;2022-09-09T12:22:08;94821.47;;;27.55;53.12
6435;BME280;3250;42.694;23.278;2022-09-09T12:24:52;94884.78;;;28.05;54.08
6435;BME280;3250;42.694;23.278;2022-09-09T12:27:24;94877.16;;;28.16;55.02
6435;BME280;3250;42.694;23.278;2022-09-09T12:30:02;94808.88;;;27.76;53.65
6435;BME280;3250;42.694;23.278;2022-09-09T12:32:31;94866.81;;;27.84;51.94
6435;BME280;3250;42.694;23.278;2022-09-09T12:37:35;94816.81;;;27.38;51.70
6435;BME280;3250;42.694;23.278;2022-09-09T12:42:42;94876.06;;;27.65;53.42
6435;BME280;3250;42.694;23.278;2022-09-09T12:45:22;94829.19;;;27.04;54.40
6435;BME280;3250;42.694;23.278;2022-09-09T12:47:59;94870.09;;;27.37;55.19
6435;BME280;3250;42.694;23.278;2022-09-09T12:50:43;94854.00;;;27.15;54.01
6435;BME280;3250;42.694;23.278;2022-09-09T12:53:15;94866.06;;;27.18;55.73
6435;BME280;3250;42.694;23.278;2022-09-09T12:55:53;94832.19;;;27.03;53.29
6435;BME280;3250;42.694;23.278;2022-09-09T12:58:20;94839.81;;;27.10;53.30
6435;BME280;3250;42.694;23.278;2022-09-09T13:00:53;94846.53;;;27.21;53.75
6435;BME280;3250;42.694;23.278;2022-09-09T13:03:22;94859.91;;;27.34;53.47
6435;BME280;3250;42.694;23.278;2022-09-09T13:05:49;94857.06;;;27.31;53.74
6435;BME280;3250;42.694;23.278;2022-09-09T13:08:16;94863.88;;;27.28;54.36
6435;BME280;3250;42.694;23.278;2022-09-09T13:11:01;94843.03;;;27.20;54.54
6435;BME280;3250;42.694;23.278;2022-09-09T13:16:21;94848.28;;;27.25;53.97
6435;BME280;3250;42.694;23.278;2022-09-09T13:18:42;94773.94;;;26.80;54.87
6435;BME280;3250;42.694;23.278;2022-09-09T13:21:08;94824.41;;;27.10;54.78
6435;BME280;3250;42.694;23.278;2022-09-09T13:23:36;94819.44;;;26.95;55.18
6435;BME280;3250;42.694;23.278;2022-09-09T13:26:19;94819.78;;;27.02;56.03
6435;BME280;3250;42.694;23.278;2022-09-09T13:28:47;94801.59;;;26.85;54.80
6435;BME280;3250;42.694;23.278;2022-09-09T13:31:42;94815.41;;;26.84;55.21
6435;BME280;3250;42.694;23.278;2022-09-09T13:34:34;94784.84;;;26.66;55.09
6435;BME280;3250;42.694;23.278;2022-09-09T13:37:05;94794.09;;;26.82;54.89
6435;BME280;3250;42.694;23.278;2022-09-09T13:39:35;94798.41;;;26.83;55.00
6435;BME280;3250;42.694;23.278;2022-09-09T13:42:19;94821.84;;;26.96;55.33
6435;BME280;3250;42.694;23.278;2022-09-09T13:44:47;94752.09;;;26.59;55.36
6435;BME280;3250;42.694;23.278;2022-09-09T13:47:29;94745.75;;;26.55;54.61
6435;BME280;3250;42.694;23.278;2022-09-09T13:49:56;94709.31;;;26.35;54.36
6435;BME280;3250;42.694;23.278;2022-09-09T13:52:21;94715.34;;;26.41;53.59
6435;BME280;3250;42.694;23.278;2022-09-09T13:54:51;94772.19;;;26.84;52.73
6435;BME280;3250;42.694;23.278;2022-09-09T13:57:21;94801.97;;;27.01;50.18
6435;BME280;3250;42.694;23.278;2022-09-09T13:59:47;94680.81;;;26.20;52.88
6435;BME280;3250;42.694;23.278;2022-09-09T14:02:15;94718.41;;;26.56;54.68
6435;BME280;3250;42.694;23.278;2022-09-09T14:04:42;94763.75;;;26.77;53.34
6435;BME280;3250;42.694;23.278;2022-09-09T14:07:12;94794.50;;;26.98;51.24
6435;BME280;3250;42.694;23.278;2022-09-09T14:09:39;94795.75;;;27.00;50.95
6435;BME280;3250;42.694;23.278;2022-09-09T14:12:08;94802.63;;;26.98;50.59
6435;BME280;3250;42.694;23.278;2022-09-09T14:14:34;94790.34;;;26.92;50.51
6435;BME280;3250;42.694;23.278;2022-09-09T14:17:00;94777.91;;;26.82;50.24
6435;BME280;3250;42.694;23.278;2022-09-09T14:19:25;94789.38;;;26.88;50.86
6435;BME280;3250;42.694;23.278;2022-09-09T14:21:51;94771.69;;;26.73;51.68
6435;BME280;3250;42.694;23.278;2022-09-09T14:24:16;94778.88;;;26.86;51.89
6435;BME280;3250;42.694;23.278;2022-09-09T14:26:42;94778.88;;;26.86;51.83
6435;BME280;3250;42.694;23.278;2022-09-09T14:29:08;94783.66;;;26.89;51.58
6435;BME280;3250;42.694;23.278;2022-09-09T14:31:34;94779.19;;;26.85;51.56
6435;BME280;3250;42.694;23.278;2022-09-09T14:33:59;94777.94;;;26.91;52.15
6435;BME280;3250;42.694;23.278;2022-09-09T14:36:25;94744.81;;;26.68;52.27
6435;BME280;3250;42.694;23.278;2022-09-09T14:38:51;94797.22;;;27.07;52.56
6435;BME280;3250;42.694;23.278;2022-09-09T14:41:18;94781.63;;;26.95;53.12
6435;BME280;3250;42.694;23.278;2022-09-09T14:43:45;94757.38;;;26.73;53.21
6435;BME280;3250;42.694;23.278;2022-09-09T14:46:16;94785.84;;;26.79;54.65
6435;BME280;3250;42.694;23.278;2022-09-09T14:48:42;94750.47;;;26.49;54.24
6435;BME280;3250;42.694;23.278;2022-09-09T14:51:12;94723.13;;;26.34;53.60
6435;BME280;3250;42.694;23.278;2022-09-09T14:53:39;94772.44;;;26.56;54.11
6435;BME280;3250;42.694;23.278;2022-09-09T14:56:16;94782.13;;;26.57;53.94
6435;BME280;3250;42.694;23.278;2022-09-09T14:58:42;94768.72;;;26.35;54.26
6435;BME280;3250;42.694;23.278;2022-09-09T15:01:13;94724.88;;;25.99;54.67
6435;BME280;3250;42.694;23.278;2022-09-09T15:03:41;94784.56;;;26.28;54.60
6435;BME280;3250;42.694;23.278;2022-09-09T15:06:11;94790.50;;;26.16;55.13
6435;BME280;3250;42.694;23.278;2022-09-09T15:08:39;94808.00;;;26.19;55.08
6435;BME280;3250;42.694;23.278;2022-09-09T15:11:06;94792.81;;;26.01;55.83
6435;BME280;3250;42.694;23.278;2022-09-09T15:13:34;94809.66;;;26.06;55.79
6435;BME280;3250;42.694;23.278;2022-09-09T15:16:06;94802.66;;;26.05;55.66
6435;BME280;3250;42.694;23.278;2022-09-09T15:18:33;94816.22;;;26.14;55.87
6435;BME280;3250;42.694;23.278;2022-09-09T15:21:05;94814.50;;;26.18;55.79
6435;BME280;3250;42.694;23.278;2022-09-09T15:23:37;94785.97;;;25.95;56.27
6435;BME280;3250;42.694;23.278;2022-09-09T15:26:03;94806.66;;;26.08;56.67
6435;BME280;3250;42.694;23.278;2022-09-09T15:28:31;94804.94;;;26.12;57.16
6435;BME280;3250;42.694;23.278;2022-09-09T15:30:57;94808.00;;;26.19;56.03
6435;BME280;3250;42.694;23.278;2022-09-09T15:33:24;94782.97;;;26.05;55.66
6435;BME280;3250;42.694;23.278;2022-09-09T15:35:50;94802.41;;;26.15;55.72